sensor_id;sensor_type;location;lat;lon;timestamp;P1;durP1;ratioP1;P2;durP2;ratioP2
82417;SDS011;75985;53.734;10.260;2024-01-25T00:01:29;42.45;;;7.10;;
82417;SDS011;75985;53.734;10.260;2024-01-25T00:04:34;40.95;;;7.50;;
82417;SDS011;75985;53.734;10.260;2024-01-25T00:07:44;36.83;;;7.65;;
82417;SDS011;75985;53.734;10.260;2024-01-25T00:10:50;47.13;;;7.87;;
82417;SDS011;75985;53.734;10.260;2024-01-25T00:13:54;41.18;;;7.17;;
82417;SDS011;75985;53.734;10.260;2024-01-25T00:16:59;44.08;;;7.97;;
82417;SDS011;75985;53.734;10.260;2024-01-25T00:20:03;44.38;;;7.12;;
82417;SDS011;75985;53.734;10.260;2024-01-25T00:23:08;44.55;;;7.47;;
82417;SDS011;75985;53.734;10.260;2024-01-25T00:26:13;46.33;;;7.70;;
82417;SDS011;75985;53.734;10.260;2024-01-25T00:29:17;58.83;;;8.35;;
82417;SDS011;75985;53.734;10.260;2024-01-25T00:32:22;45.80;;;8.78;;
82417;SDS011;75985;53.734;10.260;2024-01-25T00:35:26;53.13;;;8.93;;
82417;SDS011;75985;53.734;10.260;2024-01-25T00:38:31;52.38;;;8.95;;
82417;SDS011;75985;53.734;10.260;2024-01-25T00:41:37;40.12;;;7.80;;
82417;SDS011;75985;53.734;10.260;2024-01-25T00:44:42;42.93;;;6.75;;
82417;SDS011;75985;53.734;10.260;2024-01-25T00:47:47;40.55;;;7.50;;
82417;SDS011;75985;53.734;10.260;2024-01-25T00:50:52;46.70;;;8.33;;
82417;SDS011;75985;53.734;10.260;2024-01-25T00:53:56;42.08;;;7.95;;
82417;SDS011;75985;53.734;10.260;2024-01-25T00:57:01;44.73;;;7.92;;
82417;SDS011;75985;53.734;10.260;2024-01-25T01:00:06;52.30;;;9.23;;
82417;SDS011;75985;53.734;10.260;2024-01-25T01:03:11;45.90;;;8.70;;
82417;SDS011;75985;53.734;10.260;2024-01-25T01:06:17;40.08;;;8.20;;
82417;SDS011;75985;53.734;10.260;2024-01-25T01:09:25;45.45;;;8.98;;
82417;SDS011;75985;53.734;10.260;2024-01-25T01:12:30;47.98;;;7.35;;
82417;SDS011;75985;53.734;10.260;2024-01-25T01:15:34;37.20;;;8.05;;
82417;SDS011;75985;53.734;10.260;2024-01-25T01:18:39;40.03;;;7.40;;
82417;SDS011;75985;53.734;10.260;2024-01-25T01:21:43;52.78;;;9.08;;
82417;SDS011;75985;53.734;10.260;2024-01-25T01:24:48;51.48;;;9.33;;
82417;SDS011;75985;53.734;10.260;2024-01-25T01:27:53;49.03;;;7.53;;
82417;SDS011;75985;53.734;10.260;2024-01-25T01:30:57;41.73;;;7.45;;
82417;SDS011;75985;53.734;10.260;2024-01-25T01:34:02;54.67;;;8.70;;
82417;SDS011;75985;53.734;10.260;2024-01-25T01:37:06;42.35;;;7.45;;
82417;SDS011;75985;53.734;10.260;2024-01-25T01:40:11;42.58;;;7.87;;
82417;SDS011;75985;53.734;10.260;2024-01-25T01:43:19;43.83;;;8.15;;
82417;SDS011;75985;53.734;10.260;2024-01-25T01:49:39;50.43;;;9.15;;
82417;SDS011;75985;53.734;10.260;2024-01-25T01:52:43;41.18;;;7.42;;
82417;SDS011;75985;53.734;10.260;2024-01-25T01:55:49;43.00;;;7.60;;
82417;SDS011;75985;53.734;10.260;2024-01-25T01:58:53;38.90;;;8.05;;
82417;SDS011;75985;53.734;10.260;2024-01-25T02:02:03;44.48;;;6.92;;
82417;SDS011;75985;53.734;10.260;2024-01-25T02:05:08;45.17;;;6.62;;
82417;SDS011;75985;53.734;10.260;2024-01-25T02:08:13;37.83;;;6.72;;
82417;SDS011;75985;53.734;10.260;2024-01-25T02:11:19;43.17;;;6.78;;
82417;SDS011;75985;53.734;10.260;2024-01-25T02:14:23;51.53;;;7.05;;
82417;SDS011;75985;53.734;10.260;2024-01-25T02:17:28;42.60;;;7.03;;
82417;SDS011;75985;53.734;10.260;2024-01-25T02:20:33;29.67;;;6.42;;
82417;SDS011;75985;53.734;10.260;2024-01-25T02:23:38;35.60;;;6.62;;
82417;SDS011;75985;53.734;10.260;2024-01-25T02:26:43;47.80;;;7.92;;
82417;SDS011;75985;53.734;10.260;2024-01-25T02:29:48;42.60;;;8.30;;
82417;SDS011;75985;53.734;10.260;2024-01-25T02:32:52;44.27;;;6.47;;
82417;SDS011;75985;53.734;10.260;2024-01-25T02:35:57;47.55;;;9.18;;
82417;SDS011;75985;53.734;10.260;2024-01-25T02:39:01;43.63;;;7.53;;
82417;SDS011;75985;53.734;10.260;2024-01-25T02:42:07;48.80;;;7.53;;
82417;SDS011;75985;53.734;10.260;2024-01-25T02:45:11;38.50;;;6.80;;
82417;SDS011;75985;53.734;10.260;2024-01-25T02:48:16;37.83;;;6.53;;
82417;SDS011;75985;53.734;10.260;2024-01-25T02:51:20;37.65;;;6.90;;
82417;SDS011;75985;53.734;10.260;2024-01-25T02:54:25;36.80;;;6.80;;
82417;SDS011;75985;53.734;10.260;2024-01-25T02:57:30;31.27;;;6.03;;
82417;SDS011;75985;53.734;10.260;2024-01-25T03:00:35;33.28;;;7.25;;
82417;SDS011;75985;53.734;10.260;2024-01-25T03:03:39;37.05;;;6.97;;
82417;SDS011;75985;53.734;10.260;2024-01-25T03:06:44;36.98;;;7.15;;
82417;SDS011;75985;53.734;10.260;2024-01-25T03:09:48;35.75;;;6.25;;
82417;SDS011;75985;53.734;10.260;2024-01-25T03:12:53;31.30;;;6.08;;
82417;SDS011;75985;53.734;10.260;2024-01-25T03:15:58;37.38;;;5.65;;
82417;SDS011;75985;53.734;10.260;2024-01-25T03:19:02;34.13;;;5.47;;
82417;SDS011;75985;53.734;10.260;2024-01-25T03:22:07;34.45;;;6.37;;
82417;SDS011;75985;53.734;10.260;2024-01-25T03:25:11;28.87;;;5.97;;
82417;SDS011;75985;53.734;10.260;2024-01-25T03:28:16;29.30;;;6.80;;
82417;SDS011;75985;53.734;10.260;2024-01-25T03:31:21;31.70;;;5.85;;
82417;SDS011;75985;53.734;10.260;2024-01-25T03:34:25;27.65;;;5.33;;
82417;SDS011;75985;53.734;10.260;2024-01-25T03:37:30;26.52;;;5.22;;
82417;SDS011;75985;53.734;10.260;2024-01-25T03:40:34;26.25;;;5.42;;
82417;SDS011;75985;53.734;10.260;2024-01-25T03:43:39;37.45;;;5.55;;
82417;SDS011;75985;53.734;10.260;2024-01-25T03:46:43;28.30;;;6.30;;
82417;SDS011;75985;53.734;10.260;2024-01-25T03:49:48;33.28;;;4.92;;
82417;SDS011;75985;53.734;10.260;2024-01-25T03:52:53;23.38;;;4.53;;
82417;SDS011;75985;53.734;10.260;2024-01-25T03:55:57;32.60;;;6.03;;
82417;SDS011;75985;53.734;10.260;2024-01-25T03:59:01;27.20;;;6.15;;
82417;SDS011;75985;53.734;10.260;2024-01-25T04:02:06;32.67;;;5.30;;
82417;SDS011;75985;53.734;10.260;2024-01-25T04:05:12;22.75;;;5.12;;
82417;SDS011;75985;53.734;10.260;2024-01-25T04:08:16;23.32;;;4.90;;
82417;SDS011;75985;53.734;10.260;2024-01-25T04:11:21;22.87;;;4.60;;
82417;SDS011;75985;53.734;10.260;2024-01-25T04:14:26;27.30;;;5.58;;
82417;SDS011;75985;53.734;10.260;2024-01-25T04:17:31;26.00;;;5.40;;
82417;SDS011;75985;53.734;10.260;2024-01-25T04:20:37;26.00;;;4.08;;
82417;SDS011;75985;53.734;10.260;2024-01-25T04:23:41;25.02;;;5.20;;
82417;SDS011;75985;53.734;10.260;2024-01-25T04:26:46;30.90;;;5.35;;
82417;SDS011;75985;53.734;10.260;2024-01-25T04:29:50;20.08;;;4.50;;
82417;SDS011;75985;53.734;10.260;2024-01-25T04:32:55;21.07;;;4.53;;
82417;SDS011;75985;53.734;10.260;2024-01-25T04:35:59;28.98;;;5.90;;
82417;SDS011;75985;53.734;10.260;2024-01-25T04:39:04;27.50;;;5.00;;
82417;SDS011;75985;53.734;10.260;2024-01-25T04:42:09;37.63;;;5.97;;
82417;SDS011;75985;53.734;10.260;2024-01-25T04:45:13;32.75;;;5.17;;
82417;SDS011;75985;53.734;10.260;2024-01-25T04:48:17;24.63;;;4.67;;
82417;SDS011;75985;53.734;10.260;2024-01-25T04:51:22;30.12;;;5.80;;
82417;SDS011;75985;53.734;10.260;2024-01-25T04:54:26;33.00;;;5.97;;
82417;SDS011;75985;53.734;10.260;2024-01-25T04:57:31;33.90;;;6.20;;
82417;SDS011;75985;53.734;10.260;2024-01-25T05:00:35;26.30;;;4.40;;
82417;SDS011;75985;53.734;10.260;2024-01-25T05:03:42;22.67;;;5.12;;
82417;SDS011;75985;53.734;10.260;2024-01-25T05:06:46;36.53;;;6.90;;
82417;SDS011;75985;53.734;10.260;2024-01-25T05:09:51;32.88;;;6.72;;
82417;SDS011;75985;53.734;10.260;2024-01-25T05:12:55;29.02;;;5.00;;
82417;SDS011;75985;53.734;10.260;2024-01-25T05:16:00;30.02;;;5.42;;
82417;SDS011;75985;53.734;10.260;2024-01-25T05:19:04;27.27;;;5.83;;
82417;SDS011;75985;53.734;10.260;2024-01-25T05:22:09;30.43;;;5.05;;
82417;SDS011;75985;53.734;10.260;2024-01-25T05:25:14;38.08;;;6.30;;
82417;SDS011;75985;53.734;10.260;2024-01-25T05:28:18;28.83;;;4.95;;
82417;SDS011;75985;53.734;10.260;2024-01-25T05:31:23;45.83;;;6.42;;
82417;SDS011;75985;53.734;10.260;2024-01-25T05:34:27;27.27;;;5.05;;
82417;SDS011;75985;53.734;10.260;2024-01-25T05:37:32;34.67;;;6.47;;
82417;SDS011;75985;53.734;10.260;2024-01-25T05:40:36;33.83;;;6.12;;
82417;SDS011;75985;53.734;10.260;2024-01-25T05:43:42;25.52;;;5.58;;
82417;SDS011;75985;53.734;10.260;2024-01-25T05:46:46;35.63;;;6.45;;
82417;SDS011;75985;53.734;10.260;2024-01-25T05:49:51;39.48;;;5.03;;
82417;SDS011;75985;53.734;10.260;2024-01-25T05:52:55;32.93;;;5.22;;
82417;SDS011;75985;53.734;10.260;2024-01-25T05:56:00;29.48;;;5.20;;
82417;SDS011;75985;53.734;10.260;2024-01-25T05:59:06;34.98;;;6.05;;
82417;SDS011;75985;53.734;10.260;2024-01-25T06:02:10;39.03;;;5.85;;
82417;SDS011;75985;53.734;10.260;2024-01-25T06:05:15;31.40;;;5.85;;
82417;SDS011;75985;53.734;10.260;2024-01-25T06:08:21;24.63;;;5.20;;
82417;SDS011;75985;53.734;10.260;2024-01-25T06:11:25;29.07;;;5.10;;
82417;SDS011;75985;53.734;10.260;2024-01-25T06:14:30;26.87;;;4.35;;
82417;SDS011;75985;53.734;10.260;2024-01-25T06:17:34;33.18;;;4.95;;
82417;SDS011;75985;53.734;10.260;2024-01-25T06:20:39;25.52;;;4.45;;
82417;SDS011;75985;53.734;10.260;2024-01-25T06:23:43;28.30;;;4.50;;
82417;SDS011;75985;53.734;10.260;2024-01-25T06:26:48;26.42;;;4.15;;
82417;SDS011;75985;53.734;10.260;2024-01-25T06:29:53;19.27;;;4.10;;
82417;SDS011;75985;53.734;10.260;2024-01-25T06:32:57;28.12;;;5.58;;
82417;SDS011;75985;53.734;10.260;2024-01-25T06:36:02;26.75;;;4.72;;
82417;SDS011;75985;53.734;10.260;2024-01-25T06:39:06;19.87;;;5.12;;
82417;SDS011;75985;53.734;10.260;2024-01-25T06:42:11;27.02;;;4.58;;
82417;SDS011;75985;53.734;10.260;2024-01-25T06:45:16;21.42;;;4.85;;
82417;SDS011;75985;53.734;10.260;2024-01-25T06:48:20;26.57;;;4.65;;
82417;SDS011;75985;53.734;10.260;2024-01-25T06:51:24;32.83;;;5.08;;
82417;SDS011;75985;53.734;10.260;2024-01-25T06:54:29;34.23;;;5.87;;
82417;SDS011;75985;53.734;10.260;2024-01-25T06:57:34;31.48;;;5.03;;
82417;SDS011;75985;53.734;10.260;2024-01-25T07:00:38;20.70;;;4.40;;
82417;SDS011;75985;53.734;10.260;2024-01-25T07:03:45;22.65;;;4.85;;
82417;SDS011;75985;53.734;10.260;2024-01-25T07:06:49;28.75;;;4.85;;
82417;SDS011;75985;53.734;10.260;2024-01-25T07:09:54;28.45;;;5.05;;
82417;SDS011;75985;53.734;10.260;2024-01-25T07:12:58;27.02;;;5.15;;
82417;SDS011;75985;53.734;10.260;2024-01-25T07:16:03;34.45;;;4.85;;
82417;SDS011;75985;53.734;10.260;2024-01-25T07:19:08;26.93;;;5.00;;
82417;SDS011;75985;53.734;10.260;2024-01-25T07:22:12;30.75;;;5.10;;
82417;SDS011;75985;53.734;10.260;2024-01-25T07:25:17;31.27;;;6.40;;
82417;SDS011;75985;53.734;10.260;2024-01-25T07:28:22;32.45;;;5.55;;
82417;SDS011;75985;53.734;10.260;2024-01-25T07:31:27;26.35;;;5.20;;
82417;SDS011;75985;53.734;10.260;2024-01-25T07:34:32;32.80;;;5.83;;
82417;SDS011;75985;53.734;10.260;2024-01-25T07:37:36;26.97;;;5.92;;
82417;SDS011;75985;53.734;10.260;2024-01-25T07:40:43;27.35;;;4.53;;
82417;SDS011;75985;53.734;10.260;2024-01-25T07:43:47;28.10;;;4.87;;
82417;SDS011;75985;53.734;10.260;2024-01-25T07:46:52;33.10;;;5.22;;
82417;SDS011;75985;53.734;10.260;2024-01-25T07:49:56;30.43;;;5.12;;
82417;SDS011;75985;53.734;10.260;2024-01-25T07:53:01;27.42;;;4.37;;
82417;SDS011;75985;53.734;10.260;2024-01-25T07:56:08;34.85;;;5.87;;
82417;SDS011;75985;53.734;10.260;2024-01-25T07:59:13;25.15;;;5.28;;
82417;SDS011;75985;53.734;10.260;2024-01-25T08:02:19;31.40;;;6.00;;
82417;SDS011;75985;53.734;10.260;2024-01-25T08:05:23;29.02;;;4.67;;
82417;SDS011;75985;53.734;10.260;2024-01-25T08:08:28;31.17;;;5.20;;
82417;SDS011;75985;53.734;10.260;2024-01-25T08:11:33;34.18;;;5.72;;
82417;SDS011;75985;53.734;10.260;2024-01-25T08:14:37;32.13;;;6.15;;
82417;SDS011;75985;53.734;10.260;2024-01-25T08:17:42;23.02;;;4.35;;
82417;SDS011;75985;53.734;10.260;2024-01-25T08:20:46;27.10;;;5.37;;
82417;SDS011;75985;53.734;10.260;2024-01-25T08:23:51;27.70;;;5.58;;
82417;SDS011;75985;53.734;10.260;2024-01-25T08:26:55;32.15;;;6.20;;
82417;SDS011;75985;53.734;10.260;2024-01-25T08:30:00;29.42;;;4.67;;
82417;SDS011;75985;53.734;10.260;2024-01-25T08:33:05;37.00;;;5.35;;
82417;SDS011;75985;53.734;10.260;2024-01-25T08:36:10;27.17;;;4.80;;
82417;SDS011;75985;53.734;10.260;2024-01-25T08:39:15;31.65;;;5.80;;
82417;SDS011;75985;53.734;10.260;2024-01-25T08:42:19;41.40;;;5.33;;
82417;SDS011;75985;53.734;10.260;2024-01-25T08:45:24;32.73;;;5.55;;
82417;SDS011;75985;53.734;10.260;2024-01-25T08:48:28;31.17;;;4.95;;
82417;SDS011;75985;53.734;10.260;2024-01-25T08:51:33;36.03;;;6.28;;
82417;SDS011;75985;53.734;10.260;2024-01-25T08:54:37;38.70;;;6.25;;
82417;SDS011;75985;53.734;10.260;2024-01-25T08:57:42;35.48;;;6.08;;
82417;SDS011;75985;53.734;10.260;2024-01-25T09:00:46;38.90;;;5.20;;
82417;SDS011;75985;53.734;10.260;2024-01-25T09:03:51;39.18;;;6.33;;
82417;SDS011;75985;53.734;10.260;2024-01-25T09:06:56;33.33;;;6.85;;
82417;SDS011;75985;53.734;10.260;2024-01-25T09:10:01;39.92;;;6.67;;
82417;SDS011;75985;53.734;10.260;2024-01-25T09:13:07;35.98;;;5.80;;
82417;SDS011;75985;53.734;10.260;2024-01-25T09:16:12;37.03;;;5.75;;
82417;SDS011;75985;53.734;10.260;2024-01-25T09:19:18;36.55;;;7.25;;
82417;SDS011;75985;53.734;10.260;2024-01-25T09:22:22;38.17;;;6.30;;
82417;SDS011;75985;53.734;10.260;2024-01-25T09:25:27;34.18;;;5.65;;
82417;SDS011;75985;53.734;10.260;2024-01-25T09:28:31;30.02;;;5.47;;
82417;SDS011;75985;53.734;10.260;2024-01-25T09:31:36;38.02;;;5.78;;
82417;SDS011;75985;53.734;10.260;2024-01-25T09:34:41;37.33;;;5.55;;
82417;SDS011;75985;53.734;10.260;2024-01-25T09:37:45;41.85;;;5.00;;
82417;SDS011;75985;53.734;10.260;2024-01-25T09:40:50;32.85;;;5.33;;
82417;SDS011;75985;53.734;10.260;2024-01-25T09:43:54;26.48;;;5.40;;
82417;SDS011;75985;53.734;10.260;2024-01-25T09:46:59;27.98;;;5.17;;
82417;SDS011;75985;53.734;10.260;2024-01-25T09:50:10;28.17;;;4.30;;
82417;SDS011;75985;53.734;10.260;2024-01-25T09:53:17;27.75;;;4.97;;
82417;SDS011;75985;53.734;10.260;2024-01-25T09:56:24;28.52;;;5.65;;
82417;SDS011;75985;53.734;10.260;2024-01-25T09:59:31;24.02;;;5.00;;
82417;SDS011;75985;53.734;10.260;2024-01-25T10:02:36;33.58;;;5.37;;
82417;SDS011;75985;53.734;10.260;2024-01-25T10:05:41;25.90;;;5.20;;
82417;SDS011;75985;53.734;10.260;2024-01-25T10:08:45;27.30;;;4.70;;
82417;SDS011;75985;53.734;10.260;2024-01-25T10:11:50;26.12;;;4.87;;
82417;SDS011;75985;53.734;10.260;2024-01-25T10:14:54;25.72;;;4.92;;
82417;SDS011;75985;53.734;10.260;2024-01-25T10:17:59;22.10;;;5.25;;
82417;SDS011;75985;53.734;10.260;2024-01-25T10:21:03;32.63;;;6.42;;
82417;SDS011;75985;53.734;10.260;2024-01-25T10:24:09;22.90;;;4.78;;
82417;SDS011;75985;53.734;10.260;2024-01-25T10:27:13;28.55;;;5.33;;
82417;SDS011;75985;53.734;10.260;2024-01-25T10:30:18;25.45;;;5.35;;
82417;SDS011;75985;53.734;10.260;2024-01-25T10:33:24;30.80;;;5.20;;
82417;SDS011;75985;53.734;10.260;2024-01-25T10:36:30;28.23;;;5.03;;
82417;SDS011;75985;53.734;10.260;2024-01-25T10:39:36;18.02;;;5.05;;
82417;SDS011;75985;53.734;10.260;2024-01-25T10:42:41;38.55;;;5.67;;
82417;SDS011;75985;53.734;10.260;2024-01-25T10:45:45;24.50;;;5.30;;
82417;SDS011;75985;53.734;10.260;2024-01-25T10:48:51;29.77;;;5.58;;
82417;SDS011;75985;53.734;10.260;2024-01-25T10:51:56;25.05;;;5.25;;
82417;SDS011;75985;53.734;10.260;2024-01-25T10:55:01;25.10;;;4.40;;
82417;SDS011;75985;53.734;10.260;2024-01-25T10:58:07;23.22;;;5.08;;
82417;SDS011;75985;53.734;10.260;2024-01-25T11:01:12;27.65;;;4.92;;
82417;SDS011;75985;53.734;10.260;2024-01-25T11:04:17;24.00;;;4.92;;
82417;SDS011;75985;53.734;10.260;2024-01-25T11:07:22;30.55;;;5.00;;
82417;SDS011;75985;53.734;10.260;2024-01-25T11:10:27;31.37;;;5.28;;
82417;SDS011;75985;53.734;10.260;2024-01-25T11:13:31;23.73;;;4.47;;
82417;SDS011;75985;53.734;10.260;2024-01-25T11:16:36;34.43;;;6.28;;
82417;SDS011;75985;53.734;10.260;2024-01-25T11:19:43;26.55;;;5.37;;
82417;SDS011;75985;53.734;10.260;2024-01-25T11:22:48;22.87;;;4.85;;
82417;SDS011;75985;53.734;10.260;2024-01-25T11:25:54;18.20;;;4.03;;
82417;SDS011;75985;53.734;10.260;2024-01-25T11:28:59;31.42;;;5.22;;
82417;SDS011;75985;53.734;10.260;2024-01-25T11:32:03;32.17;;;4.97;;
82417;SDS011;75985;53.734;10.260;2024-01-25T11:35:09;23.47;;;4.62;;
82417;SDS011;75985;53.734;10.260;2024-01-25T11:38:15;23.42;;;4.65;;
82417;SDS011;75985;53.734;10.260;2024-01-25T11:41:20;25.15;;;5.05;;
82417;SDS011;75985;53.734;10.260;2024-01-25T11:44:24;21.40;;;4.00;;
82417;SDS011;75985;53.734;10.260;2024-01-25T11:47:29;20.08;;;4.65;;
82417;SDS011;75985;53.734;10.260;2024-01-25T11:50:34;24.57;;;4.20;;
82417;SDS011;75985;53.734;10.260;2024-01-25T11:53:39;25.08;;;4.35;;
82417;SDS011;75985;53.734;10.260;2024-01-25T11:56:44;24.72;;;4.55;;
82417;SDS011;75985;53.734;10.260;2024-01-25T11:59:49;23.75;;;4.40;;
82417;SDS011;75985;53.734;10.260;2024-01-25T12:02:54;24.45;;;4.25;;
82417;SDS011;75985;53.734;10.260;2024-01-25T12:05:59;26.70;;;4.60;;
82417;SDS011;75985;53.734;10.260;2024-01-25T12:09:07;31.55;;;5.50;;
82417;SDS011;75985;53.734;10.260;2024-01-25T12:12:12;26.33;;;4.80;;
82417;SDS011;75985;53.734;10.260;2024-01-25T12:15:19;18.87;;;4.70;;
82417;SDS011;75985;53.734;10.260;2024-01-25T12:18:24;22.30;;;4.87;;
82417;SDS011;75985;53.734;10.260;2024-01-25T12:21:28;32.05;;;5.55;;
82417;SDS011;75985;53.734;10.260;2024-01-25T12:24:35;26.60;;;5.12;;
82417;SDS011;75985;53.734;10.260;2024-01-25T12:27:39;32.88;;;5.58;;
82417;SDS011;75985;53.734;10.260;2024-01-25T12:30:48;22.77;;;5.00;;
82417;SDS011;75985;53.734;10.260;2024-01-25T12:33:52;32.40;;;5.47;;
82417;SDS011;75985;53.734;10.260;2024-01-25T12:36:57;23.90;;;4.50;;
82417;SDS011;75985;53.734;10.260;2024-01-25T12:40:02;31.40;;;5.80;;
82417;SDS011;75985;53.734;10.260;2024-01-25T12:43:06;31.80;;;5.33;;
82417;SDS011;75985;53.734;10.260;2024-01-25T12:46:11;29.15;;;5.35;;
82417;SDS011;75985;53.734;10.260;2024-01-25T12:49:16;35.38;;;5.92;;
82417;SDS011;75985;53.734;10.260;2024-01-25T12:52:23;31.48;;;4.92;;
82417;SDS011;75985;53.734;10.260;2024-01-25T12:55:34;29.18;;;6.22;;
82417;SDS011;75985;53.734;10.260;2024-01-25T12:58:33;32.23;;;5.53;;
82417;SDS011;75985;53.734;10.260;2024-01-25T13:01:38;26.27;;;5.45;;
82417;SDS011;75985;53.734;10.260;2024-01-25T13:04:43;32.53;;;6.67;;
82417;SDS011;75985;53.734;10.260;2024-01-25T13:07:47;31.27;;;4.80;;
82417;SDS011;75985;53.734;10.260;2024-01-25T13:10:51;18.87;;;4.80;;
82417;SDS011;75985;53.734;10.260;2024-01-25T13:13:56;31.77;;;5.45;;
82417;SDS011;75985;53.734;10.260;2024-01-25T13:17:00;32.00;;;6.25;;
82417;SDS011;75985;53.734;10.260;2024-01-25T13:20:06;25.32;;;6.08;;
82417;SDS011;75985;53.734;10.260;2024-01-25T13:23:11;26.95;;;5.00;;
82417;SDS011;75985;53.734;10.260;2024-01-25T13:26:15;28.57;;;5.12;;
82417;SDS011;75985;53.734;10.260;2024-01-25T13:29:20;34.33;;;5.55;;
82417;SDS011;75985;53.734;10.260;2024-01-25T13:32:24;34.45;;;6.58;;
82417;SDS011;75985;53.734;10.260;2024-01-25T13:35:28;32.28;;;5.50;;
82417;SDS011;75985;53.734;10.260;2024-01-25T13:38:33;41.25;;;4.75;;
82417;SDS011;75985;53.734;10.260;2024-01-25T13:41:41;29.87;;;4.60;;
82417;SDS011;75985;53.734;10.260;2024-01-25T13:44:45;30.45;;;5.55;;
82417;SDS011;75985;53.734;10.260;2024-01-25T13:47:50;34.70;;;5.85;;
82417;SDS011;75985;53.734;10.260;2024-01-25T13:50:54;28.73;;;6.05;;
82417;SDS011;75985;53.734;10.260;2024-01-25T13:53:59;34.63;;;5.70;;
82417;SDS011;75985;53.734;10.260;2024-01-25T13:57:03;21.82;;;4.60;;
82417;SDS011;75985;53.734;10.260;2024-01-25T14:00:08;25.23;;;4.70;;
82417;SDS011;75985;53.734;10.260;2024-01-25T14:03:14;36.33;;;5.42;;
82417;SDS011;75985;53.734;10.260;2024-01-25T14:06:19;24.95;;;4.22;;
82417;SDS011;75985;53.734;10.260;2024-01-25T14:09:24;25.97;;;4.42;;
82417;SDS011;75985;53.734;10.260;2024-01-25T14:12:32;25.10;;;5.25;;
82417;SDS011;75985;53.734;10.260;2024-01-25T14:15:36;26.65;;;4.78;;
82417;SDS011;75985;53.734;10.260;2024-01-25T14:18:41;28.30;;;5.08;;
82417;SDS011;75985;53.734;10.260;2024-01-25T14:21:46;29.27;;;5.65;;
82417;SDS011;75985;53.734;10.260;2024-01-25T14:24:52;31.35;;;5.30;;
82417;SDS011;75985;53.734;10.260;2024-01-25T14:27:57;27.52;;;6.83;;
82417;SDS011;75985;53.734;10.260;2024-01-25T14:31:01;23.52;;;4.75;;
82417;SDS011;75985;53.734;10.260;2024-01-25T14:34:06;26.17;;;5.45;;
82417;SDS011;75985;53.734;10.260;2024-01-25T14:37:11;24.72;;;5.62;;
82417;SDS011;75985;53.734;10.260;2024-01-25T14:40:16;33.33;;;5.85;;
82417;SDS011;75985;53.734;10.260;2024-01-25T14:43:20;24.52;;;5.42;;
82417;SDS011;75985;53.734;10.260;2024-01-25T14:46:25;28.05;;;4.45;;
82417;SDS011;75985;53.734;10.260;2024-01-25T14:49:30;26.65;;;4.90;;
82417;SDS011;75985;53.734;10.260;2024-01-25T14:52:35;26.85;;;5.15;;
82417;SDS011;75985;53.734;10.260;2024-01-25T14:55:39;33.98;;;5.62;;
82417;SDS011;75985;53.734;10.260;2024-01-25T14:58:44;18.98;;;4.80;;
82417;SDS011;75985;53.734;10.260;2024-01-25T15:01:48;23.47;;;4.85;;
82417;SDS011;75985;53.734;10.260;2024-01-25T15:04:53;32.20;;;5.47;;
82417;SDS011;75985;53.734;10.260;2024-01-25T15:07:57;32.75;;;5.50;;
82417;SDS011;75985;53.734;10.260;2024-01-25T15:11:02;21.65;;;5.03;;
82417;SDS011;75985;53.734;10.260;2024-01-25T15:14:07;27.95;;;4.87;;
82417;SDS011;75985;53.734;10.260;2024-01-25T15:17:11;20.72;;;5.55;;
82417;SDS011;75985;53.734;10.260;2024-01-25T15:20:16;34.18;;;7.05;;
82417;SDS011;75985;53.734;10.260;2024-01-25T15:23:20;32.53;;;6.35;;
82417;SDS011;75985;53.734;10.260;2024-01-25T15:26:24;28.45;;;6.25;;
82417;SDS011;75985;53.734;10.260;2024-01-25T15:29:29;29.98;;;5.83;;
82417;SDS011;75985;53.734;10.260;2024-01-25T15:32:34;38.78;;;6.08;;
82417;SDS011;75985;53.734;10.260;2024-01-25T15:35:39;27.62;;;4.67;;
82417;SDS011;75985;53.734;10.260;2024-01-25T15:38:43;22.20;;;4.83;;
82417;SDS011;75985;53.734;10.260;2024-01-25T15:41:48;19.77;;;4.72;;
82417;SDS011;75985;53.734;10.260;2024-01-25T15:44:53;26.10;;;4.75;;
82417;SDS011;75985;53.734;10.260;2024-01-25T15:47:57;21.93;;;3.85;;
82417;SDS011;75985;53.734;10.260;2024-01-25T15:51:02;15.90;;;4.22;;
82417;SDS011;75985;53.734;10.260;2024-01-25T15:54:06;21.60;;;3.80;;
82417;SDS011;75985;53.734;10.260;2024-01-25T15:57:11;22.95;;;4.08;;
82417;SDS011;75985;53.734;10.260;2024-01-25T16:00:15;27.00;;;4.90;;
82417;SDS011;75985;53.734;10.260;2024-01-25T16:03:20;28.70;;;4.35;;
82417;SDS011;75985;53.734;10.260;2024-01-25T16:06:24;26.23;;;4.35;;
82417;SDS011;75985;53.734;10.260;2024-01-25T16:09:29;24.20;;;4.00;;
82417;SDS011;75985;53.734;10.260;2024-01-25T16:12:33;30.92;;;5.30;;
82417;SDS011;75985;53.734;10.260;2024-01-25T16:15:39;26.90;;;4.92;;
82417;SDS011;75985;53.734;10.260;2024-01-25T16:18:44;26.23;;;5.78;;
82417;SDS011;75985;53.734;10.260;2024-01-25T16:21:48;23.35;;;4.75;;
82417;SDS011;75985;53.734;10.260;2024-01-25T16:24:53;32.90;;;5.30;;
82417;SDS011;75985;53.734;10.260;2024-01-25T16:27:58;21.65;;;3.62;;
82417;SDS011;75985;53.734;10.260;2024-01-25T16:31:03;24.70;;;5.03;;
82417;SDS011;75985;53.734;10.260;2024-01-25T16:34:07;26.17;;;4.20;;
82417;SDS011;75985;53.734;10.260;2024-01-25T16:37:12;20.12;;;3.58;;
82417;SDS011;75985;53.734;10.260;2024-01-25T16:40:16;20.37;;;3.80;;
82417;SDS011;75985;53.734;10.260;2024-01-25T16:43:21;24.65;;;4.67;;
82417;SDS011;75985;53.734;10.260;2024-01-25T16:46:25;20.15;;;4.70;;
82417;SDS011;75985;53.734;10.260;2024-01-25T16:49:30;16.20;;;3.55;;
82417;SDS011;75985;53.734;10.260;2024-01-25T16:52:34;22.42;;;4.33;;
82417;SDS011;75985;53.734;10.260;2024-01-25T16:55:39;23.52;;;4.70;;
82417;SDS011;75985;53.734;10.260;2024-01-25T16:58:44;19.60;;;4.85;;
82417;SDS011;75985;53.734;10.260;2024-01-25T17:01:48;20.17;;;3.65;;
82417;SDS011;75985;53.734;10.260;2024-01-25T17:04:53;24.47;;;4.58;;
82417;SDS011;75985;53.734;10.260;2024-01-25T17:07:58;23.55;;;4.70;;
82417;SDS011;75985;53.734;10.260;2024-01-25T17:11:03;19.57;;;4.90;;
82417;SDS011;75985;53.734;10.260;2024-01-25T17:14:08;19.30;;;4.20;;
82417;SDS011;75985;53.734;10.260;2024-01-25T17:17:13;18.92;;;4.47;;
82417;SDS011;75985;53.734;10.260;2024-01-25T17:20:17;22.45;;;5.40;;
82417;SDS011;75985;53.734;10.260;2024-01-25T17:23:22;21.60;;;5.53;;
82417;SDS011;75985;53.734;10.260;2024-01-25T17:26:26;22.77;;;4.53;;
82417;SDS011;75985;53.734;10.260;2024-01-25T17:29:31;22.30;;;6.53;;
82417;SDS011;75985;53.734;10.260;2024-01-25T17:32:35;24.70;;;6.25;;
82417;SDS011;75985;53.734;10.260;2024-01-25T17:35:40;19.98;;;5.10;;
82417;SDS011;75985;53.734;10.260;2024-01-25T17:38:45;17.87;;;5.20;;
82417;SDS011;75985;53.734;10.260;2024-01-25T17:41:50;19.57;;;5.17;;
82417;SDS011;75985;53.734;10.260;2024-01-25T17:44:54;16.60;;;6.50;;
82417;SDS011;75985;53.734;10.260;2024-01-25T17:47:59;19.70;;;6.17;;
82417;SDS011;75985;53.734;10.260;2024-01-25T17:51:03;22.05;;;6.37;;
82417;SDS011;75985;53.734;10.260;2024-01-25T17:54:09;17.00;;;5.60;;
82417;SDS011;75985;53.734;10.260;2024-01-25T17:57:14;19.62;;;7.37;;
82417;SDS011;75985;53.734;10.260;2024-01-25T18:00:18;25.02;;;7.83;;
82417;SDS011;75985;53.734;10.260;2024-01-25T18:03:23;27.40;;;8.65;;